TimeAKST,TemperatureF,Dew PointF,Humidity,Sea Level PressureIn,VisibilityMPH,Wind Direction,Wind SpeedMPH,Gust SpeedMPH,PrecipitationIn,Events,Conditions,WindDirDegrees,DateUTC
12:53 AM,-17.0,-22.0,78,29.82,7.0,West,8.1,-,N/A,,Partly Cloudy,270,2013-03-01 09:53:00
1:53 AM,-20.0,-24.0,82,29.85,10.0,West,9.2,-,N/A,,Partly Cloudy,270,2013-03-01 10:53:00
3:53 AM,-18.9,-24.0,78,29.91,5.0,West,9.2,-,N/A,,Overcast,280,2013-03-01 12:53:00
4:53 AM,-20.0,-25.1,78,29.91,2.5,West,12.7,-,N/A,,Overcast,280,2013-03-01 13:53:00
4:58 AM,-20.2,-25.6,76,29.92,3.0,West,12.7,-,N/A,,Mostly Cloudy,280,2013-03-01 13:58:00
5:53 AM,-23.1,-27.9,78,29.94,5.0,West,12.7,-,N/A,,Partly Cloudy,270,2013-03-01 14:53:00
6:50 AM,-25.6,-29.2,83,29.96,2.0,West,11.5,-,N/A,,Clear,280,2013-03-01 15:50:00
6:53 AM,-25.1,-29.0,82,29.96,2.0,West,11.5,-,N/A,,Clear,280,2013-03-01 15:53:00
7:00 AM,-23.8,-29.2,76,29.95,4.0,West,11.5,-,N/A,,Partly Cloudy,270,2013-03-01 16:00:00
7:53 AM,-26.0,-31.0,77,29.99,5.0,West,10.4,-,N/A,,Clear,270,2013-03-01 16:53:00
8:53 AM,-27.9,-32.1,81,30.00,5.0,West,9.2,-,N/A,,Clear,280,2013-03-01 17:53:00
9:53 AM,-27.9,-33.0,77,30.03,10.0,WNW,4.6,-,N/A,,Clear,290,2013-03-01 18:53:00
10:02 AM,-27.4,-32.8,75,30.03,10.0,NW,3.5,-,N/A,,Scattered Clouds,320,2013-03-01 19:02:00
10:53 AM,-25.1,-31.0,74,30.05,3.0,WNW,10.4,-,N/A,,Partly Cloudy,290,2013-03-01 19:53:00
11:12 AM,-25.6,-29.2,83,30.06,5.0,NW,3.5,-,N/A,,Partly Cloudy,320,2013-03-01 20:12:00
11:53 AM,-24.0,-27.0,86,30.07,10.0,Calm,Calm,-,N/A,,Clear,0,2013-03-01 20:53:00
12:53 PM,-23.1,-27.9,78,30.09,9.0,West,4.6,-,0.00,,Clear,280,2013-03-01 21:53:00
1:53 PM,-20.0,-25.1,78,30.10,10.0,West,3.5,-,N/A,,Clear,270,2013-03-01 22:53:00
2:53 PM,-18.0,-24.0,74,30.09,10.0,West,6.9,-,N/A,,Clear,270,2013-03-01 23:53:00
3:53 PM,-17.0,-23.1,74,30.11,10.0,WNW,3.5,-,N/A,,Clear,290,2013-03-02 00:53:00
4:53 PM,-18.0,-23.1,78,30.10,10.0,Calm,Calm,-,N/A,,Clear,0,2013-03-02 01:53:00
5:53 PM,-20.0,-25.1,78,30.11,10.0,WSW,9.2,-,0.00,,Clear,250,2013-03-02 02:53:00
6:53 PM,-22.0,-27.0,77,30.11,10.0,West,8.1,-,N/A,,Clear,280,2013-03-02 03:53:00
7:53 PM,-25.1,-27.9,86,30.11,6.0,SSW,4.6,-,N/A,,Clear,210,2013-03-02 04:53:00
8:53 PM,-26.0,-31.0,77,30.12,10.0,SW,5.8,-,N/A,,Clear,220,2013-03-02 05:53:00
9:53 PM,-26.0,-31.0,77,30.14,10.0,SW,3.5,-,N/A,,Clear,230,2013-03-02 06:53:00
10:53 PM,-27.9,-34.1,73,30.14,10.0,Calm,Calm,-,N/A,,Clear,0,2013-03-02 07:53:00
11:53 PM,-27.9,-32.1,81,30.14,10.0,East,3.5,-,N/A,,Clear,100,2013-03-02 08:53:00